Panther Forest, Arkansas
Current Conditions -  °F | °C
As of 9:53 AM on Saturday 25 Oct 2014 (Local Time) from KGLH Reporting Station
Clear Clear  
Wind Chill: 20°   Ceiling: Unl
Heat Index: 20°   Visibility: 9mi
Dew Point: 13°   Wind: 8mph
Humidity: 65%   Direction: 260°W
Pressure: 30.16"   Gusts: NA
Location:  33.3324°N, 91.3183°W
Report Text: KGLH 251453Z AUTO 26007KT 9SM CLR 20/13 A3016 RMK AO2 SLP219 T02000133 53011
Loading
Personal Weather Stations






























Interactive Weather Map
Tropical Storm Tracking
New forecast layout! Learn more

10-Day Weather Forecast

Advertisements
Track Severe Weather on mobile